sensor_id;sensor_type;location;lat;lon;timestamp;temperature;humidity
35894;DHT22;21994;48.204;16.516;2023-07-16T00:00:50;24.60;99.90
35894;DHT22;21994;48.204;16.516;2023-07-16T00:03:16;24.50;99.90
35894;DHT22;21994;48.204;16.516;2023-07-16T00:05:42;24.50;99.90
35894;DHT22;21994;48.204;16.516;2023-07-16T00:08:08;24.40;99.90
35894;DHT22;21994;48.204;16.516;2023-07-16T00:10:37;24.30;99.90
35894;DHT22;21994;48.204;16.516;2023-07-16T00:13:03;24.30;99.90
35894;DHT22;21994;48.204;16.516;2023-07-16T00:15:29;24.30;99.90
35894;DHT22;21994;48.204;16.516;2023-07-16T00:21:36;24.30;99.90
35894;DHT22;21994;48.204;16.516;2023-07-16T00:24:03;24.30;99.90
35894;DHT22;21994;48.204;16.516;2023-07-16T00:26:28;24.30;99.90
35894;DHT22;21994;48.204;16.516;2023-07-16T00:28:54;24.30;99.90
35894;DHT22;21994;48.204;16.516;2023-07-16T00:31:20;24.30;99.90
35894;DHT22;21994;48.204;16.516;2023-07-16T00:33:46;24.20;99.90
35894;DHT22;21994;48.204;16.516;2023-07-16T00:36:11;24.20;99.90
35894;DHT22;21994;48.204;16.516;2023-07-16T00:38:37;24.10;99.90
35894;DHT22;21994;48.204;16.516;2023-07-16T00:41:05;24.10;99.90
35894;DHT22;21994;48.204;16.516;2023-07-16T00:43:31;24.00;99.90
35894;DHT22;21994;48.204;16.516;2023-07-16T00:45:56;24.00;99.90
35894;DHT22;21994;48.204;16.516;2023-07-16T00:48:23;24.00;99.90
35894;DHT22;21994;48.204;16.516;2023-07-16T00:50:49;23.90;99.90
35894;DHT22;21994;48.204;16.516;2023-07-16T00:53:16;23.90;99.90
35894;DHT22;21994;48.204;16.516;2023-07-16T00:55:42;23.80;99.90
35894;DHT22;21994;48.204;16.516;2023-07-16T00:58:07;23.80;99.90
35894;DHT22;21994;48.204;16.516;2023-07-16T01:00:37;23.70;99.90
35894;DHT22;21994;48.204;16.516;2023-07-16T01:03:11;23.70;99.90
35894;DHT22;21994;48.204;16.516;2023-07-16T01:05:47;23.60;99.90
35894;DHT22;21994;48.204;16.516;2023-07-16T01:08:28;23.60;99.90
35894;DHT22;21994;48.204;16.516;2023-07-16T01:10:57;23.50;99.90
35894;DHT22;21994;48.204;16.516;2023-07-16T01:13:23;23.50;99.90
35894;DHT22;21994;48.204;16.516;2023-07-16T01:15:49;23.50;99.90
35894;DHT22;21994;48.204;16.516;2023-07-16T01:18:14;23.50;99.90
35894;DHT22;21994;48.204;16.516;2023-07-16T01:20:40;23.50;99.90
35894;DHT22;21994;48.204;16.516;2023-07-16T01:25:46;23.40;99.90
35894;DHT22;21994;48.204;16.516;2023-07-16T01:31:32;23.50;99.90
35894;DHT22;21994;48.204;16.516;2023-07-16T01:33:58;23.40;99.90
35894;DHT22;21994;48.204;16.516;2023-07-16T01:36:24;23.40;99.90
35894;DHT22;21994;48.204;16.516;2023-07-16T01:38:50;23.30;99.90
35894;DHT22;21994;48.204;16.516;2023-07-16T01:41:16;23.30;99.90
35894;DHT22;21994;48.204;16.516;2023-07-16T01:43:44;23.30;99.90
35894;DHT22;21994;48.204;16.516;2023-07-16T01:46:09;23.30;99.90
35894;DHT22;21994;48.204;16.516;2023-07-16T01:48:35;23.30;99.90
35894;DHT22;21994;48.204;16.516;2023-07-16T01:51:02;23.30;99.90
35894;DHT22;21994;48.204;16.516;2023-07-16T01:53:29;23.30;99.90
35894;DHT22;21994;48.204;16.516;2023-07-16T01:55:55;23.20;99.90
35894;DHT22;21994;48.204;16.516;2023-07-16T01:58:20;23.20;99.90
35894;DHT22;21994;48.204;16.516;2023-07-16T02:00:47;23.10;99.90
35894;DHT22;21994;48.204;16.516;2023-07-16T02:03:13;23.20;99.90
35894;DHT22;21994;48.204;16.516;2023-07-16T02:05:39;23.10;99.90
35894;DHT22;21994;48.204;16.516;2023-07-16T02:08:05;23.10;99.90
35894;DHT22;21994;48.204;16.516;2023-07-16T02:10:31;23.10;99.90
35894;DHT22;21994;48.204;16.516;2023-07-16T02:12:57;23.00;99.90
35894;DHT22;21994;48.204;16.516;2023-07-16T02:15:23;23.00;99.90
35894;DHT22;21994;48.204;16.516;2023-07-16T02:17:48;23.00;99.90
35894;DHT22;21994;48.204;16.516;2023-07-16T02:20:14;23.00;99.90
35894;DHT22;21994;48.204;16.516;2023-07-16T02:22:40;22.90;99.90
35894;DHT22;21994;48.204;16.516;2023-07-16T02:25:06;23.00;99.90
35894;DHT22;21994;48.204;16.516;2023-07-16T02:27:32;23.00;99.90
35894;DHT22;21994;48.204;16.516;2023-07-16T02:29:57;22.90;99.90
35894;DHT22;21994;48.204;16.516;2023-07-16T02:32:23;22.90;99.90
35894;DHT22;21994;48.204;16.516;2023-07-16T02:34:49;22.80;99.90
35894;DHT22;21994;48.204;16.516;2023-07-16T02:37:15;22.80;99.90
35894;DHT22;21994;48.204;16.516;2023-07-16T02:39:41;22.70;99.90
35894;DHT22;21994;48.204;16.516;2023-07-16T02:42:10;22.60;99.90
35894;DHT22;21994;48.204;16.516;2023-07-16T02:44:36;22.60;99.90
35894;DHT22;21994;48.204;16.516;2023-07-16T02:47:10;22.60;99.90
35894;DHT22;21994;48.204;16.516;2023-07-16T02:49:38;22.50;99.90
35894;DHT22;21994;48.204;16.516;2023-07-16T02:52:04;22.50;99.90
35894;DHT22;21994;48.204;16.516;2023-07-16T02:54:31;22.40;99.90
35894;DHT22;21994;48.204;16.516;2023-07-16T02:56:57;22.30;99.90
35894;DHT22;21994;48.204;16.516;2023-07-16T02:59:23;22.20;99.90
35894;DHT22;21994;48.204;16.516;2023-07-16T03:01:49;22.10;99.90
35894;DHT22;21994;48.204;16.516;2023-07-16T03:04:15;22.00;99.90
35894;DHT22;21994;48.204;16.516;2023-07-16T03:06:41;21.90;99.90
35894;DHT22;21994;48.204;16.516;2023-07-16T03:09:06;21.80;99.90
35894;DHT22;21994;48.204;16.516;2023-07-16T03:11:32;21.70;99.90
35894;DHT22;21994;48.204;16.516;2023-07-16T03:13:58;21.60;99.90
35894;DHT22;21994;48.204;16.516;2023-07-16T03:16:23;21.70;99.90
35894;DHT22;21994;48.204;16.516;2023-07-16T03:18:49;21.60;99.90
35894;DHT22;21994;48.204;16.516;2023-07-16T03:21:15;21.50;99.90
35894;DHT22;21994;48.204;16.516;2023-07-16T03:23:40;21.40;99.90
35894;DHT22;21994;48.204;16.516;2023-07-16T03:26:06;21.40;99.90
35894;DHT22;21994;48.204;16.516;2023-07-16T03:28:32;21.50;99.90
35894;DHT22;21994;48.204;16.516;2023-07-16T03:30:58;21.50;99.90
35894;DHT22;21994;48.204;16.516;2023-07-16T03:33:23;21.50;99.90
35894;DHT22;21994;48.204;16.516;2023-07-16T03:35:49;21.50;99.90
35894;DHT22;21994;48.204;16.516;2023-07-16T03:38:15;21.40;99.90
35894;DHT22;21994;48.204;16.516;2023-07-16T03:40:42;21.30;99.90
35894;DHT22;21994;48.204;16.516;2023-07-16T03:43:11;21.30;99.90
35894;DHT22;21994;48.204;16.516;2023-07-16T03:45:36;21.20;99.90
35894;DHT22;21994;48.204;16.516;2023-07-16T03:48:02;21.40;99.90
35894;DHT22;21994;48.204;16.516;2023-07-16T03:50:28;21.30;99.90
35894;DHT22;21994;48.204;16.516;2023-07-16T03:52:54;21.30;99.90
35894;DHT22;21994;48.204;16.516;2023-07-16T03:55:19;21.40;99.90
35894;DHT22;21994;48.204;16.516;2023-07-16T03:57:45;21.40;99.90
35894;DHT22;21994;48.204;16.516;2023-07-16T04:00:11;21.40;99.90
35894;DHT22;21994;48.204;16.516;2023-07-16T04:02:37;21.40;99.90
35894;DHT22;21994;48.204;16.516;2023-07-16T04:05:02;21.40;99.90
35894;DHT22;21994;48.204;16.516;2023-07-16T04:07:29;21.30;99.90
35894;DHT22;21994;48.204;16.516;2023-07-16T04:09:55;21.30;99.90
35894;DHT22;21994;48.204;16.516;2023-07-16T04:12:21;21.30;99.90
35894;DHT22;21994;48.204;16.516;2023-07-16T04:14:46;21.40;99.90
35894;DHT22;21994;48.204;16.516;2023-07-16T04:17:12;21.40;99.90
35894;DHT22;21994;48.204;16.516;2023-07-16T04:19:38;21.50;99.90
35894;DHT22;21994;48.204;16.516;2023-07-16T04:22:04;21.40;99.90
35894;DHT22;21994;48.204;16.516;2023-07-16T04:24:30;21.50;99.90
35894;DHT22;21994;48.204;16.516;2023-07-16T04:26:57;21.60;99.90
35894;DHT22;21994;48.204;16.516;2023-07-16T04:29:23;21.60;99.90
35894;DHT22;21994;48.204;16.516;2023-07-16T04:31:49;21.60;99.90
35894;DHT22;21994;48.204;16.516;2023-07-16T04:34:15;21.70;99.90
35894;DHT22;21994;48.204;16.516;2023-07-16T04:36:41;21.70;99.90
35894;DHT22;21994;48.204;16.516;2023-07-16T04:39:07;21.70;99.90
35894;DHT22;21994;48.204;16.516;2023-07-16T04:41:33;21.80;99.90
35894;DHT22;21994;48.204;16.516;2023-07-16T04:43:59;21.80;99.90
35894;DHT22;21994;48.204;16.516;2023-07-16T04:46:25;21.80;99.90
35894;DHT22;21994;48.204;16.516;2023-07-16T04:48:50;21.80;99.90
35894;DHT22;21994;48.204;16.516;2023-07-16T04:51:16;21.90;99.90
35894;DHT22;21994;48.204;16.516;2023-07-16T04:53:42;21.90;99.90
35894;DHT22;21994;48.204;16.516;2023-07-16T04:56:14;22.00;99.90
35894;DHT22;21994;48.204;16.516;2023-07-16T04:58:41;22.10;99.90
35894;DHT22;21994;48.204;16.516;2023-07-16T05:01:07;22.10;99.90
35894;DHT22;21994;48.204;16.516;2023-07-16T05:03:34;22.30;99.90
35894;DHT22;21994;48.204;16.516;2023-07-16T05:06:00;22.50;99.90
35894;DHT22;21994;48.204;16.516;2023-07-16T05:08:26;22.60;99.90
35894;DHT22;21994;48.204;16.516;2023-07-16T05:10:52;22.80;99.90
35894;DHT22;21994;48.204;16.516;2023-07-16T05:13:17;22.90;99.90
35894;DHT22;21994;48.204;16.516;2023-07-16T05:15:43;22.90;99.90
35894;DHT22;21994;48.204;16.516;2023-07-16T05:18:09;23.00;99.90
35894;DHT22;21994;48.204;16.516;2023-07-16T05:20:35;23.20;99.90
35894;DHT22;21994;48.204;16.516;2023-07-16T05:23:01;23.30;99.90
35894;DHT22;21994;48.204;16.516;2023-07-16T05:25:26;23.40;99.90
35894;DHT22;21994;48.204;16.516;2023-07-16T05:27:52;23.50;99.90
35894;DHT22;21994;48.204;16.516;2023-07-16T05:30:18;23.60;99.90
35894;DHT22;21994;48.204;16.516;2023-07-16T05:32:44;23.70;99.90
35894;DHT22;21994;48.204;16.516;2023-07-16T05:35:09;23.80;99.90
35894;DHT22;21994;48.204;16.516;2023-07-16T05:37:35;23.80;99.90
35894;DHT22;21994;48.204;16.516;2023-07-16T05:40:01;23.90;99.90
35894;DHT22;21994;48.204;16.516;2023-07-16T05:42:28;24.00;99.90
35894;DHT22;21994;48.204;16.516;2023-07-16T05:44:54;24.10;99.90
35894;DHT22;21994;48.204;16.516;2023-07-16T05:47:20;24.20;99.90
35894;DHT22;21994;48.204;16.516;2023-07-16T05:49:45;24.20;99.90
35894;DHT22;21994;48.204;16.516;2023-07-16T05:52:11;24.30;99.90
35894;DHT22;21994;48.204;16.516;2023-07-16T05:54:37;24.50;99.90
35894;DHT22;21994;48.204;16.516;2023-07-16T05:57:03;24.60;99.90
35894;DHT22;21994;48.204;16.516;2023-07-16T05:59:29;24.60;99.90
35894;DHT22;21994;48.204;16.516;2023-07-16T06:01:54;24.60;99.90
35894;DHT22;21994;48.204;16.516;2023-07-16T06:04:23;24.60;99.90
35894;DHT22;21994;48.204;16.516;2023-07-16T06:09:26;24.70;99.90
35894;DHT22;21994;48.204;16.516;2023-07-16T06:11:55;24.70;99.90
35894;DHT22;21994;48.204;16.516;2023-07-16T06:14:21;24.70;99.90
35894;DHT22;21994;48.204;16.516;2023-07-16T06:16:46;24.70;99.90
35894;DHT22;21994;48.204;16.516;2023-07-16T06:19:12;24.70;99.90
35894;DHT22;21994;48.204;16.516;2023-07-16T06:21:38;24.80;99.90
35894;DHT22;21994;48.204;16.516;2023-07-16T06:24:04;24.80;99.90
35894;DHT22;21994;48.204;16.516;2023-07-16T06:26:29;24.80;99.90
35894;DHT22;21994;48.204;16.516;2023-07-16T06:28:55;24.90;99.90
35894;DHT22;21994;48.204;16.516;2023-07-16T06:31:21;25.00;99.90
35894;DHT22;21994;48.204;16.516;2023-07-16T06:33:47;24.90;99.90
35894;DHT22;21994;48.204;16.516;2023-07-16T06:36:13;25.00;99.90
35894;DHT22;21994;48.204;16.516;2023-07-16T06:38:39;25.10;99.90
35894;DHT22;21994;48.204;16.516;2023-07-16T06:41:04;25.20;99.90
35894;DHT22;21994;48.204;16.516;2023-07-16T06:43:30;25.30;99.90
35894;DHT22;21994;48.204;16.516;2023-07-16T06:45:56;25.40;99.90
35894;DHT22;21994;48.204;16.516;2023-07-16T06:48:22;25.50;99.90
35894;DHT22;21994;48.204;16.516;2023-07-16T06:50:49;25.50;99.90
35894;DHT22;21994;48.204;16.516;2023-07-16T06:53:15;25.60;99.90
35894;DHT22;21994;48.204;16.516;2023-07-16T06:55:41;25.70;99.90
35894;DHT22;21994;48.204;16.516;2023-07-16T06:58:09;25.80;99.90
35894;DHT22;21994;48.204;16.516;2023-07-16T07:00:35;25.90;99.90
35894;DHT22;21994;48.204;16.516;2023-07-16T07:03:01;26.00;99.90
35894;DHT22;21994;48.204;16.516;2023-07-16T07:05:27;26.20;99.90
35894;DHT22;21994;48.204;16.516;2023-07-16T07:07:53;26.30;99.90
35894;DHT22;21994;48.204;16.516;2023-07-16T07:10:18;26.40;99.90
35894;DHT22;21994;48.204;16.516;2023-07-16T07:12:44;26.40;99.90
35894;DHT22;21994;48.204;16.516;2023-07-16T07:15:10;26.60;99.90
35894;DHT22;21994;48.204;16.516;2023-07-16T07:17:36;26.70;99.90
35894;DHT22;21994;48.204;16.516;2023-07-16T07:20:02;26.80;99.90
35894;DHT22;21994;48.204;16.516;2023-07-16T07:22:29;27.10;99.90
35894;DHT22;21994;48.204;16.516;2023-07-16T07:24:54;27.50;99.90
35894;DHT22;21994;48.204;16.516;2023-07-16T07:27:20;27.80;99.90
35894;DHT22;21994;48.204;16.516;2023-07-16T07:29:46;27.80;99.90
35894;DHT22;21994;48.204;16.516;2023-07-16T07:32:12;27.80;99.90
35894;DHT22;21994;48.204;16.516;2023-07-16T07:34:38;28.00;99.90
35894;DHT22;21994;48.204;16.516;2023-07-16T07:37:04;28.30;99.90
35894;DHT22;21994;48.204;16.516;2023-07-16T07:39:31;28.50;99.90
35894;DHT22;21994;48.204;16.516;2023-07-16T07:41:56;28.80;99.90
35894;DHT22;21994;48.204;16.516;2023-07-16T07:44:22;28.90;99.90
35894;DHT22;21994;48.204;16.516;2023-07-16T07:46:48;29.10;99.90
35894;DHT22;21994;48.204;16.516;2023-07-16T07:49:14;29.10;99.90
35894;DHT22;21994;48.204;16.516;2023-07-16T07:51:39;29.30;99.90
35894;DHT22;21994;48.204;16.516;2023-07-16T07:54:05;29.30;99.40
35894;DHT22;21994;48.204;16.516;2023-07-16T07:56:31;29.40;99.30
35894;DHT22;21994;48.204;16.516;2023-07-16T07:58:57;29.60;98.40
35894;DHT22;21994;48.204;16.516;2023-07-16T08:01:23;29.80;97.50
35894;DHT22;21994;48.204;16.516;2023-07-16T08:03:48;29.90;97.00
35894;DHT22;21994;48.204;16.516;2023-07-16T08:06:15;30.00;96.40
35894;DHT22;21994;48.204;16.516;2023-07-16T08:08:40;30.20;96.60
35894;DHT22;21994;48.204;16.516;2023-07-16T08:11:06;30.30;95.80
35894;DHT22;21994;48.204;16.516;2023-07-16T08:13:32;30.50;95.90
35894;DHT22;21994;48.204;16.516;2023-07-16T08:15:58;30.60;95.00
35894;DHT22;21994;48.204;16.516;2023-07-16T08:18:23;30.60;94.30
35894;DHT22;21994;48.204;16.516;2023-07-16T08:20:49;30.80;93.70
35894;DHT22;21994;48.204;16.516;2023-07-16T08:23:15;31.00;93.70
35894;DHT22;21994;48.204;16.516;2023-07-16T08:25:42;31.40;94.10
35894;DHT22;21994;48.204;16.516;2023-07-16T08:28:08;31.90;93.50
35894;DHT22;21994;48.204;16.516;2023-07-16T08:30:34;31.60;91.80
35894;DHT22;21994;48.204;16.516;2023-07-16T08:33:00;31.80;92.90
35894;DHT22;21994;48.204;16.516;2023-07-16T08:35:25;31.90;93.60
35894;DHT22;21994;48.204;16.516;2023-07-16T08:37:51;31.90;91.50
35894;DHT22;21994;48.204;16.516;2023-07-16T08:40:20;32.00;91.50
35894;DHT22;21994;48.204;16.516;2023-07-16T08:42:46;32.20;91.40
35894;DHT22;21994;48.204;16.516;2023-07-16T08:45:14;32.40;90.80
35894;DHT22;21994;48.204;16.516;2023-07-16T08:47:41;32.40;91.00
35894;DHT22;21994;48.204;16.516;2023-07-16T08:50:07;32.60;91.40
35894;DHT22;21994;48.204;16.516;2023-07-16T08:52:33;32.70;91.10
35894;DHT22;21994;48.204;16.516;2023-07-16T08:54:59;32.60;90.00
35894;DHT22;21994;48.204;16.516;2023-07-16T08:57:25;32.20;90.10
35894;DHT22;21994;48.204;16.516;2023-07-16T08:59:51;32.10;90.60
35894;DHT22;21994;48.204;16.516;2023-07-16T09:02:17;32.20;90.30
35894;DHT22;21994;48.204;16.516;2023-07-16T09:04:44;32.60;90.10
35894;DHT22;21994;48.204;16.516;2023-07-16T09:07:12;33.00;89.80
35894;DHT22;21994;48.204;16.516;2023-07-16T09:09:37;33.50;90.10
35894;DHT22;21994;48.204;16.516;2023-07-16T09:12:03;33.60;88.60
35894;DHT22;21994;48.204;16.516;2023-07-16T09:14:29;33.60;87.30
35894;DHT22;21994;48.204;16.516;2023-07-16T09:16:55;33.50;87.30
35894;DHT22;21994;48.204;16.516;2023-07-16T09:19:21;33.80;87.20
35894;DHT22;21994;48.204;16.516;2023-07-16T09:21:50;33.90;86.10
35894;DHT22;21994;48.204;16.516;2023-07-16T09:24:18;33.50;85.40
35894;DHT22;21994;48.204;16.516;2023-07-16T09:26:51;33.30;86.40
35894;DHT22;21994;48.204;16.516;2023-07-16T09:29:18;33.20;86.60
35894;DHT22;21994;48.204;16.516;2023-07-16T09:31:59;33.60;86.40
35894;DHT22;21994;48.204;16.516;2023-07-16T09:34:29;33.90;84.70
35894;DHT22;21994;48.204;16.516;2023-07-16T09:36:59;33.20;85.70
35894;DHT22;21994;48.204;16.516;2023-07-16T09:39:26;32.70;86.30
35894;DHT22;21994;48.204;16.516;2023-07-16T09:41:52;32.60;87.20
35894;DHT22;21994;48.204;16.516;2023-07-16T09:44:18;32.70;88.90
35894;DHT22;21994;48.204;16.516;2023-07-16T09:46:45;32.90;86.80
35894;DHT22;21994;48.204;16.516;2023-07-16T09:49:14;32.80;86.80
35894;DHT22;21994;48.204;16.516;2023-07-16T09:51:40;33.20;86.30
35894;DHT22;21994;48.204;16.516;2023-07-16T09:54:08;34.00;89.30
35894;DHT22;21994;48.204;16.516;2023-07-16T09:56:38;34.60;83.40
35894;DHT22;21994;48.204;16.516;2023-07-16T09:59:08;35.20;82.10
35894;DHT22;21994;48.204;16.516;2023-07-16T10:01:39;35.10;82.40
35894;DHT22;21994;48.204;16.516;2023-07-16T10:04:12;35.50;82.40
35894;DHT22;21994;48.204;16.516;2023-07-16T10:06:49;36.00;80.20
35894;DHT22;21994;48.204;16.516;2023-07-16T10:09:14;36.10;80.80
35894;DHT22;21994;48.204;16.516;2023-07-16T10:12:12;35.60;78.20
35894;DHT22;21994;48.204;16.516;2023-07-16T10:14:40;34.70;81.10
35894;DHT22;21994;48.204;16.516;2023-07-16T10:17:06;34.40;83.00
35894;DHT22;21994;48.204;16.516;2023-07-16T10:20:17;34.40;82.10
35894;DHT22;21994;48.204;16.516;2023-07-16T10:22:35;34.60;83.00
35894;DHT22;21994;48.204;16.516;2023-07-16T10:25:27;34.50;83.60
35894;DHT22;21994;48.204;16.516;2023-07-16T10:27:55;34.90;82.60
35894;DHT22;21994;48.204;16.516;2023-07-16T10:30:21;35.70;81.00
35894;DHT22;21994;48.204;16.516;2023-07-16T10:32:46;36.30;78.00
35894;DHT22;21994;48.204;16.516;2023-07-16T10:35:12;35.80;79.60
35894;DHT22;21994;48.204;16.516;2023-07-16T10:37:42;35.10;82.50
35894;DHT22;21994;48.204;16.516;2023-07-16T10:40:12;34.40;83.70
35894;DHT22;21994;48.204;16.516;2023-07-16T10:42:40;34.90;83.10
35894;DHT22;21994;48.204;16.516;2023-07-16T10:45:17;35.60;81.70
35894;DHT22;21994;48.204;16.516;2023-07-16T10:47:53;36.40;79.00
35894;DHT22;21994;48.204;16.516;2023-07-16T10:50:20;36.80;79.00
35894;DHT22;21994;48.204;16.516;2023-07-16T10:52:52;37.30;76.80
35894;DHT22;21994;48.204;16.516;2023-07-16T10:55:19;37.70;75.60
35894;DHT22;21994;48.204;16.516;2023-07-16T10:57:48;37.50;75.90
35894;DHT22;21994;48.204;16.516;2023-07-16T11:00:15;37.50;75.70
35894;DHT22;21994;48.204;16.516;2023-07-16T11:02:42;37.30;77.40
35894;DHT22;21994;48.204;16.516;2023-07-16T11:05:09;37.80;75.90
35894;DHT22;21994;48.204;16.516;2023-07-16T11:07:36;38.40;74.10
35894;DHT22;21994;48.204;16.516;2023-07-16T11:10:02;38.10;75.00
35894;DHT22;21994;48.204;16.516;2023-07-16T11:12:29;38.20;76.20
35894;DHT22;21994;48.204;16.516;2023-07-16T11:14:55;38.10;74.70
35894;DHT22;21994;48.204;16.516;2023-07-16T11:17:22;38.10;74.80
35894;DHT22;21994;48.204;16.516;2023-07-16T11:19:51;38.40;72.70
35894;DHT22;21994;48.204;16.516;2023-07-16T11:22:18;38.50;74.50
35894;DHT22;21994;48.204;16.516;2023-07-16T11:24:49;38.00;73.40
35894;DHT22;21994;48.204;16.516;2023-07-16T11:27:25;37.70;74.10
35894;DHT22;21994;48.204;16.516;2023-07-16T11:29:55;37.20;73.90
35894;DHT22;21994;48.204;16.516;2023-07-16T11:32:32;36.90;75.90
35894;DHT22;21994;48.204;16.516;2023-07-16T11:35:00;36.80;76.10
35894;DHT22;21994;48.204;16.516;2023-07-16T11:37:27;36.50;73.90
35894;DHT22;21994;48.204;16.516;2023-07-16T11:39:57;36.00;76.10
35894;DHT22;21994;48.204;16.516;2023-07-16T11:42:31;35.70;79.20
35894;DHT22;21994;48.204;16.516;2023-07-16T11:44:58;36.00;78.10
35894;DHT22;21994;48.204;16.516;2023-07-16T11:47:24;36.10;78.50
35894;DHT22;21994;48.204;16.516;2023-07-16T11:49:51;36.20;78.10
35894;DHT22;21994;48.204;16.516;2023-07-16T11:52:35;35.90;76.90
35894;DHT22;21994;48.204;16.516;2023-07-16T11:55:01;35.80;81.10
35894;DHT22;21994;48.204;16.516;2023-07-16T11:57:32;35.70;76.80
35894;DHT22;21994;48.204;16.516;2023-07-16T11:59:58;35.50;76.80
35894;DHT22;21994;48.204;16.516;2023-07-16T12:02:25;35.30;76.50
35894;DHT22;21994;48.204;16.516;2023-07-16T12:04:51;35.00;77.40
35894;DHT22;21994;48.204;16.516;2023-07-16T12:07:33;35.00;77.20
35894;DHT22;21994;48.204;16.516;2023-07-16T12:10:06;35.10;79.50
35894;DHT22;21994;48.204;16.516;2023-07-16T12:12:33;35.30;78.50
35894;DHT22;21994;48.204;16.516;2023-07-16T12:15:09;35.30;75.50
35894;DHT22;21994;48.204;16.516;2023-07-16T12:17:35;35.50;75.80
35894;DHT22;21994;48.204;16.516;2023-07-16T12:20:02;35.70;78.00
35894;DHT22;21994;48.204;16.516;2023-07-16T12:22:29;35.60;74.50
35894;DHT22;21994;48.204;16.516;2023-07-16T12:24:55;35.60;76.70
35894;DHT22;21994;48.204;16.516;2023-07-16T12:27:21;35.60;75.30
35894;DHT22;21994;48.204;16.516;2023-07-16T12:29:47;35.70;76.80
35894;DHT22;21994;48.204;16.516;2023-07-16T12:32:13;35.70;75.80
35894;DHT22;21994;48.204;16.516;2023-07-16T12:34:39;35.60;76.50
35894;DHT22;21994;48.204;16.516;2023-07-16T12:37:05;35.50;76.10
35894;DHT22;21994;48.204;16.516;2023-07-16T12:39:32;35.50;77.90
35894;DHT22;21994;48.204;16.516;2023-07-16T12:41:58;35.50;74.30
35894;DHT22;21994;48.204;16.516;2023-07-16T12:44:24;35.40;75.70
35894;DHT22;21994;48.204;16.516;2023-07-16T12:46:50;35.40;76.20
35894;DHT22;21994;48.204;16.516;2023-07-16T12:49:16;35.30;75.40
35894;DHT22;21994;48.204;16.516;2023-07-16T12:51:41;35.10;75.90
35894;DHT22;21994;48.204;16.516;2023-07-16T12:54:07;35.10;75.10
35894;DHT22;21994;48.204;16.516;2023-07-16T12:56:33;35.30;75.80
35894;DHT22;21994;48.204;16.516;2023-07-16T12:58:59;35.30;73.20
35894;DHT22;21994;48.204;16.516;2023-07-16T13:01:24;35.00;71.90
35894;DHT22;21994;48.204;16.516;2023-07-16T13:03:50;35.10;77.10
35894;DHT22;21994;48.204;16.516;2023-07-16T13:06:16;35.40;75.20
35894;DHT22;21994;48.204;16.516;2023-07-16T13:08:42;35.50;75.00
35894;DHT22;21994;48.204;16.516;2023-07-16T13:11:07;35.50;74.20
35894;DHT22;21994;48.204;16.516;2023-07-16T13:13:33;35.60;75.10
35894;DHT22;21994;48.204;16.516;2023-07-16T13:16:00;35.30;72.50
35894;DHT22;21994;48.204;16.516;2023-07-16T13:18:26;35.20;75.40
35894;DHT22;21994;48.204;16.516;2023-07-16T13:20:52;35.20;74.60
35894;DHT22;21994;48.204;16.516;2023-07-16T13:23:18;35.20;74.70
35894;DHT22;21994;48.204;16.516;2023-07-16T13:25:43;35.00;73.50
35894;DHT22;21994;48.204;16.516;2023-07-16T13:28:09;34.90;73.80
35894;DHT22;21994;48.204;16.516;2023-07-16T13:30:35;34.80;78.50
35894;DHT22;21994;48.204;16.516;2023-07-16T13:33:01;34.80;81.40
35894;DHT22;21994;48.204;16.516;2023-07-16T13:35:27;34.70;77.40
35894;DHT22;21994;48.204;16.516;2023-07-16T13:37:53;34.40;75.00
35894;DHT22;21994;48.204;16.516;2023-07-16T13:40:18;34.00;79.40
35894;DHT22;21994;48.204;16.516;2023-07-16T13:42:47;34.00;82.00
35894;DHT22;21994;48.204;16.516;2023-07-16T13:45:13;34.10;75.60
35894;DHT22;21994;48.204;16.516;2023-07-16T13:47:39;34.10;79.20
35894;DHT22;21994;48.204;16.516;2023-07-16T13:50:05;34.10;75.70
35894;DHT22;21994;48.204;16.516;2023-07-16T13:52:31;34.10;76.50
35894;DHT22;21994;48.204;16.516;2023-07-16T13:54:57;33.90;76.10
35894;DHT22;21994;48.204;16.516;2023-07-16T13:57:23;33.70;77.50
35894;DHT22;21994;48.204;16.516;2023-07-16T13:59:48;33.50;81.10
35894;DHT22;21994;48.204;16.516;2023-07-16T14:02:14;33.60;79.10
35894;DHT22;21994;48.204;16.516;2023-07-16T14:04:40;33.50;78.50
35894;DHT22;21994;48.204;16.516;2023-07-16T14:07:07;33.40;77.30
35894;DHT22;21994;48.204;16.516;2023-07-16T14:09:33;33.20;80.60
35894;DHT22;21994;48.204;16.516;2023-07-16T14:11:58;33.10;82.10
35894;DHT22;21994;48.204;16.516;2023-07-16T14:14:24;33.20;83.80
35894;DHT22;21994;48.204;16.516;2023-07-16T14:16:50;33.50;86.00
35894;DHT22;21994;48.204;16.516;2023-07-16T14:19:16;33.40;82.10
35894;DHT22;21994;48.204;16.516;2023-07-16T14:21:42;33.40;86.20
35894;DHT22;21994;48.204;16.516;2023-07-16T14:24:08;33.80;82.30
35894;DHT22;21994;48.204;16.516;2023-07-16T14:26:34;34.20;77.60
35894;DHT22;21994;48.204;16.516;2023-07-16T14:29:00;34.50;81.50
35894;DHT22;21994;48.204;16.516;2023-07-16T14:31:25;34.80;77.70
35894;DHT22;21994;48.204;16.516;2023-07-16T14:33:51;35.10;73.20
35894;DHT22;21994;48.204;16.516;2023-07-16T14:36:17;35.10;76.50
35894;DHT22;21994;48.204;16.516;2023-07-16T14:38:43;35.30;73.50
35894;DHT22;21994;48.204;16.516;2023-07-16T14:41:09;35.20;73.20
35894;DHT22;21994;48.204;16.516;2023-07-16T14:43:35;35.10;76.30
35894;DHT22;21994;48.204;16.516;2023-07-16T14:46:01;35.20;75.30
35894;DHT22;21994;48.204;16.516;2023-07-16T14:48:28;35.30;73.60
35894;DHT22;21994;48.204;16.516;2023-07-16T14:50:54;35.30;74.60
35894;DHT22;21994;48.204;16.516;2023-07-16T14:53:20;35.30;74.20
35894;DHT22;21994;48.204;16.516;2023-07-16T14:55:46;35.30;75.00
35894;DHT22;21994;48.204;16.516;2023-07-16T14:58:17;35.10;71.80
35894;DHT22;21994;48.204;16.516;2023-07-16T15:00:44;35.00;73.70
35894;DHT22;21994;48.204;16.516;2023-07-16T15:03:10;34.90;77.30
35894;DHT22;21994;48.204;16.516;2023-07-16T15:05:36;35.10;73.50
35894;DHT22;21994;48.204;16.516;2023-07-16T15:08:02;35.00;76.20
35894;DHT22;21994;48.204;16.516;2023-07-16T15:10:29;35.20;73.80
35894;DHT22;21994;48.204;16.516;2023-07-16T15:12:55;35.20;76.50
35894;DHT22;21994;48.204;16.516;2023-07-16T15:15:21;35.20;74.40
35894;DHT22;21994;48.204;16.516;2023-07-16T15:17:47;35.20;79.60
35894;DHT22;21994;48.204;16.516;2023-07-16T15:20:13;35.30;73.00
35894;DHT22;21994;48.204;16.516;2023-07-16T15:22:39;35.00;74.30
35894;DHT22;21994;48.204;16.516;2023-07-16T15:25:05;34.90;75.30